Time;durP1;ratioP1;P1;durP2;ratioP2;P2;SDS_P1;SDS_P2;PMS_P1;PMS_P2;Temp;Humidity;BMP_temperature;BMP_pressure;BME280_temperature;BME280_humidity;BME280_pressure;Samples;Min_cycle;Max_cycle;Signal;HPM_P1;HPM_P2
2024/04/16 00:02:01;;;;;;;1.17;0.50;;;;;;;6.19;100.00;97397.84;5451568;26;20270;-82
2024/04/16 00:04:29;;;;;;;0.50;0.50;;;;;;;6.17;100.00;97394.44;5452470;26;20228;-79
2024/04/16 00:06:54;;;;;;;1.83;0.60;;;;;;;6.15;100.00;97383.22;5449813;26;20287;-79
2024/04/16 00:09:22;;;;;;;1.07;0.63;;;;;;;6.19;100.00;97389.97;5450563;25;20300;-80
2024/04/16 00:11:48;;;;;;;1.13;0.50;;;;;;;6.15;100.00;97391.09;5450765;26;20283;-80
2024/04/16 00:14:19;;;;;;;1.20;0.47;;;;;;;6.18;100.00;97372.53;5450430;26;20323;-81
2024/04/16 00:16:44;;;;;;;0.73;0.67;;;;;;;6.19;100.00;97371.59;5450967;26;20275;-80
2024/04/16 00:19:12;;;;;;;0.70;0.40;;;;;;;6.22;100.00;97381.88;5450760;26;20306;-81
2024/04/16 00:21:38;;;;;;;0.73;0.70;;;;;;;6.28;100.00;97378.88;5449337;26;20230;-80
2024/04/16 00:24:06;;;;;;;1.90;0.50;;;;;;;6.27;100.00;97371.94;5449390;26;20268;-80
2024/04/16 00:26:32;;;;;;;0.97;0.60;;;;;;;6.30;100.00;97376.97;5450022;26;20256;-80
2024/04/16 00:29:00;;;;;;;1.13;0.50;;;;;;;6.34;100.00;97375.84;5448640;26;20232;-80
2024/04/16 00:31:28;;;;;;;0.87;0.50;;;;;;;6.28;100.00;97355.25;5449368;26;20876;-80
2024/04/16 00:33:57;;;;;;;1.53;0.50;;;;;;;6.29;100.00;97338.56;5450333;26;20247;-80
2024/04/16 00:36:23;;;;;;;1.43;0.60;;;;;;;6.27;100.00;97337.84;5451061;26;20264;-80
2024/04/16 00:38:51;;;;;;;0.90;0.60;;;;;;;6.27;100.00;97335.22;5450126;26;20219;-80
2024/04/16 00:41:16;;;;;;;2.10;0.60;;;;;;;6.28;100.00;97342.13;5450329;26;20674;-80
2024/04/16 00:43:44;;;;;;;2.17;0.83;;;;;;;6.28;100.00;97323.78;5449524;26;20235;-80
2024/04/16 00:46:12;;;;;;;1.50;0.63;;;;;;;6.21;100.00;97332.97;5451108;26;20344;-80
2024/04/16 00:48:43;;;;;;;1.97;0.70;;;;;;;6.15;100.00;97357.00;5450951;26;20228;-80
2024/04/16 00:51:09;;;;;;;2.50;0.83;;;;;;;6.14;100.00;97334.31;5450721;26;20295;-80
2024/04/16 00:53:38;;;;;;;3.10;0.80;;;;;;;6.08;100.00;97332.09;5451297;26;20226;-80
2024/04/16 00:56:05;;;;;;;0.87;0.53;;;;;;;6.11;100.00;97334.50;5450668;26;20275;-80
2024/04/16 00:58:37;;;;;;;1.43;0.60;;;;;;;6.11;100.00;97316.13;5451619;25;20330;-80
2024/04/16 01:01:02;;;;;;;1.83;0.60;;;;;;;6.12;100.00;97317.81;5451479;26;20247;-81
2024/04/16 01:03:31;;;;;;;1.43;0.60;;;;;;;6.15;100.00;97343.88;5452609;26;20299;-81
2024/04/16 01:05:59;;;;;;;1.60;0.67;;;;;;;6.21;100.00;97332.13;5451930;26;20284;-80
2024/04/16 01:08:27;;;;;;;1.33;0.57;;;;;;;6.17;100.00;97335.91;5451806;26;20281;-80
2024/04/16 01:10:53;;;;;;;0.70;0.70;;;;;;;6.17;100.00;97304.44;5451739;26;20235;-80
2024/04/16 01:13:21;;;;;;;0.90;0.60;;;;;;;6.17;100.00;97312.31;5451701;26;20309;-80
2024/04/16 01:15:47;;;;;;;1.87;0.70;;;;;;;6.18;100.00;97312.19;5450059;26;20274;-80
2024/04/16 01:18:15;;;;;;;3.87;0.80;;;;;;;6.18;100.00;97309.56;5451593;26;20264;-79
2024/04/16 01:20:41;;;;;;;1.97;0.70;;;;;;;6.20;100.00;97327.81;5454807;26;20721;-80
2024/04/16 01:23:11;;;;;;;3.60;0.93;;;;;;;6.24;100.00;97326.69;5454863;26;20299;-80
2024/04/16 01:25:37;;;;;;;2.90;0.90;;;;;;;6.30;100.00;97321.88;5454934;26;20263;-80
2024/04/16 01:28:06;;;;;;;0.83;0.67;;;;;;;6.28;100.00;97318.53;5453896;26;20316;-80
2024/04/16 01:30:31;;;;;;;1.30;0.70;;;;;;;6.28;100.00;97304.59;5454526;26;20321;-80
2024/04/16 01:32:59;;;;;;;1.27;0.80;;;;;;;6.31;100.00;97297.34;5454668;26;20239;-80
2024/04/16 01:35:25;;;;;;;4.67;1.03;;;;;;;6.35;100.00;97288.31;5455029;26;20276;-80
2024/04/16 01:37:53;;;;;;;1.33;0.80;;;;;;;6.29;100.00;97293.97;5455008;26;20255;-80
2024/04/16 01:40:22;;;;;;;1.97;0.77;;;;;;;6.24;100.00;97276.84;5454411;26;20247;-80
2024/04/16 01:42:50;;;;;;;2.47;0.90;;;;;;;6.31;100.00;97302.59;5454676;26;20302;-80
2024/04/16 01:45:16;;;;;;;2.93;0.90;;;;;;;6.29;100.00;97314.97;5454328;26;20235;-81
2024/04/16 01:47:44;;;;;;;2.20;0.80;;;;;;;6.37;100.00;97306.59;5454535;26;20331;-81
2024/04/16 01:50:09;;;;;;;1.50;1.00;;;;;;;6.37;100.00;97302.19;5454227;26;20286;-80
2024/04/16 01:52:38;;;;;;;2.13;0.80;;;;;;;6.35;100.00;97292.75;5455100;26;20324;-80
2024/04/16 01:55:03;;;;;;;1.50;0.70;;;;;;;6.39;100.00;97276.69;5453614;26;20322;-80
2024/04/16 01:57:35;;;;;;;1.63;0.80;;;;;;;6.43;100.00;97283.44;5455335;26;20232;-81
2024/04/16 02:00:01;;;;;;;2.70;1.07;;;;;;;6.48;100.00;97302.31;5454216;26;20393;-81
2024/04/16 02:02:29;;;;;;;1.50;0.80;;;;;;;6.40;100.00;97291.47;5454088;26;20247;-81
2024/04/16 02:04:55;;;;;;;1.17;0.90;;;;;;;6.39;100.00;97289.81;5455430;26;20359;-80
2024/04/16 02:07:23;;;;;;;1.27;0.70;;;;;;;6.38;100.00;97287.28;5455077;26;20231;-81
2024/04/16 02:09:49;;;;;;;1.87;0.83;;;;;;;6.31;100.00;97288.63;5455157;26;20244;-80
2024/04/16 02:12:17;;;;;;;2.07;0.90;;;;;;;6.29;100.00;97283.47;5454380;26;20229;-80
2024/04/16 02:14:45;;;;;;;3.20;0.90;;;;;;;6.25;100.00;97282.00;5454269;26;20640;-81
2024/04/16 02:17:13;;;;;;;4.27;0.90;;;;;;;6.27;100.00;97277.50;5454775;26;20231;-81
2024/04/16 02:19:40;;;;;;;3.60;1.20;;;;;;;6.25;100.00;97266.28;5454760;26;20271;-81
2024/04/16 02:22:08;;;;;;;2.20;0.90;;;;;;;6.35;100.00;97261.25;5454934;26;20235;-80
2024/04/16 02:24:34;;;;;;;0.77;0.67;;;;;;;6.37;100.00;97254.97;5455232;26;20276;-81
2024/04/16 02:27:02;;;;;;;3.03;1.00;;;;;;;6.39;100.00;97247.81;5455535;26;20304;-81
2024/04/16 02:29:28;;;;;;;3.57;1.07;;;;;;;6.38;100.00;97251.38;5453166;26;20263;-81
2024/04/16 02:31:59;;;;;;;1.63;0.87;;;;;;;6.35;100.00;97256.00;5453635;26;20226;-80
2024/04/16 02:34:24;;;;;;;2.97;0.90;;;;;;;6.30;100.00;97260.72;5453752;26;20279;-80
2024/04/16 02:36:53;;;;;;;2.20;0.90;;;;;;;6.25;100.00;97250.53;5453400;26;20685;-80
2024/04/16 02:39:18;;;;;;;4.37;1.10;;;;;;;6.23;100.00;97246.31;5452873;26;20383;-80
2024/04/16 02:41:46;;;;;;;1.17;0.80;;;;;;;6.23;100.00;97262.88;5452566;26;20240;-80
2024/04/16 02:44:12;;;;;;;4.00;1.53;;;;;;;6.23;100.00;97252.38;5452527;26;20277;-81
2024/04/16 02:46:40;;;;;;;2.17;1.03;;;;;;;6.28;100.00;97258.19;5453049;26;20273;-80
2024/04/16 02:49:08;;;;;;;2.37;0.90;;;;;;;6.39;100.00;97255.69;5453115;26;20320;-81
2024/04/16 02:51:36;;;;;;;3.77;1.27;;;;;;;6.39;100.00;97254.84;5453012;26;20304;-80
2024/04/16 02:54:02;;;;;;;2.43;0.90;;;;;;;6.29;100.00;97257.22;5452804;26;20300;-80
2024/04/16 02:56:30;;;;;;;2.63;1.07;;;;;;;6.25;100.00;97266.28;5453987;26;20232;-81
2024/04/16 02:58:56;;;;;;;4.63;1.33;;;;;;;6.28;100.00;97273.91;5453228;26;20228;-82
2024/04/16 03:01:24;;;;;;;2.00;0.93;;;;;;;6.33;100.00;97274.47;5453439;26;20663;-80
2024/04/16 03:03:54;;;;;;;3.93;0.90;;;;;;;6.27;100.00;97285.34;5454467;26;20299;-80
2024/04/16 03:06:25;;;;;;;3.17;1.10;;;;;;;6.20;100.00;97272.75;5454629;26;20228;-82
2024/04/16 03:08:50;;;;;;;6.17;1.23;;;;;;;6.10;100.00;97277.75;5454055;26;20228;-80
2024/04/16 03:11:18;;;;;;;2.70;1.00;;;;;;;5.95;100.00;97280.50;5452973;26;20316;-80
2024/04/16 03:13:44;;;;;;;5.10;1.27;;;;;;;5.85;100.00;97282.03;5453341;26;20307;-81
2024/04/16 03:16:12;;;;;;;2.57;0.80;;;;;;;5.78;100.00;97286.81;5453704;26;20239;-79
2024/04/16 03:18:38;;;;;;;5.37;1.83;;;;;;;5.70;100.00;97291.72;5453332;26;20299;-79
2024/04/16 03:21:07;;;;;;;1.90;1.00;;;;;;;5.65;100.00;97287.69;5452906;26;20248;-80
2024/04/16 03:23:35;;;;;;;3.00;1.20;;;;;;;5.59;100.00;97275.81;5453271;26;20321;-80
2024/04/16 03:26:04;;;;;;;1.87;1.03;;;;;;;5.52;100.00;97287.63;5453492;26;20260;-80
2024/04/16 03:28:30;;;;;;;3.47;1.30;;;;;;;5.57;100.00;97287.31;5453934;26;20266;-80
2024/04/16 03:31:00;;;;;;;5.10;1.30;;;;;;;5.58;100.00;97287.22;5452895;26;20235;-80
2024/04/16 03:33:25;;;;;;;3.50;1.37;;;;;;;5.68;100.00;97280.44;5452949;26;20727;-81
2024/04/16 03:35:56;;;;;;;1.47;1.10;;;;;;;5.74;100.00;97268.75;5453558;26;20297;-80
2024/04/16 03:38:24;;;;;;;5.93;1.60;;;;;;;5.84;100.00;97264.63;5452816;26;20339;-80
2024/04/16 03:41:00;;;;;;;4.43;1.27;;;;;;;5.84;100.00;97264.63;5452639;26;20377;-80
2024/04/16 03:43:29;;;;;;;4.30;1.13;;;;;;;5.92;100.00;97257.94;5452074;26;20333;-80
2024/04/16 03:45:55;;;;;;;4.23;1.00;;;;;;;5.94;100.00;97269.19;5453331;26;20647;-80
2024/04/16 03:48:25;;;;;;;2.90;1.10;;;;;;;5.99;100.00;97269.72;5453006;26;20222;-80
2024/04/16 03:50:51;;;;;;;5.67;1.33;;;;;;;6.06;100.00;97268.41;5452056;26;20246;-80
2024/04/16 03:53:19;;;;;;;3.13;1.57;;;;;;;6.05;100.00;97274.56;5452734;26;20696;-80
2024/04/16 03:55:45;;;;;;;1.70;1.10;;;;;;;6.04;100.00;97275.50;5451380;26;20287;-80
2024/04/16 03:58:16;;;;;;;5.40;1.30;;;;;;;6.10;100.00;97276.91;5453004;26;20688;-81
2024/04/16 04:01:00;;;;;;;4.43;1.23;;;;;;;6.01;100.00;97272.25;5452472;26;20236;-80
2024/04/16 04:03:28;;;;;;;2.23;1.50;;;;;;;5.88;100.00;97285.31;5451957;26;20231;-81
2024/04/16 04:05:57;;;;;;;3.27;1.50;;;;;;;5.77;100.00;97289.53;5452037;26;20713;-81
2024/04/16 04:08:23;;;;;;;3.80;1.30;;;;;;;5.64;100.00;97292.09;5452296;26;20294;-80
2024/04/16 04:10:51;;;;;;;8.13;1.53;;;;;;;5.54;100.00;97297.97;5451974;26;20327;-80
2024/04/16 04:13:19;;;;;;;4.70;1.33;;;;;;;5.51;100.00;97296.38;5451691;26;20239;-80
2024/04/16 04:15:47;;;;;;;3.37;1.40;;;;;;;5.52;100.00;97286.75;5451440;26;20224;-80
2024/04/16 04:18:13;;;;;;;2.90;1.47;;;;;;;5.53;100.00;97275.34;5451816;26;20227;-81
2024/04/16 04:20:42;;;;;;;3.73;1.27;;;;;;;5.53;100.00;97281.44;5450870;26;20343;-80
2024/04/16 04:23:08;;;;;;;3.83;1.47;;;;;;;5.49;100.00;97279.94;5450466;26;20296;-80
2024/04/16 04:25:36;;;;;;;3.37;1.33;;;;;;;5.44;100.00;97276.75;5449926;26;20227;-80
2024/04/16 04:28:02;;;;;;;4.83;1.73;;;;;;;5.38;100.00;97271.88;5449352;26;20282;-80
2024/04/16 04:30:33;;;;;;;3.43;1.60;;;;;;;5.36;100.00;97276.41;5449080;26;20244;-80
2024/04/16 04:32:58;;;;;;;6.80;1.67;;;;;;;5.41;100.00;97276.09;5448923;26;20600;-80
2024/04/16 04:35:27;;;;;;;7.07;1.80;;;;;;;5.41;100.00;97271.72;5449155;26;20366;-80
2024/04/16 04:37:54;;;;;;;2.57;1.10;;;;;;;5.40;100.00;97279.66;5448395;26;20709;-80
2024/04/16 04:40:22;;;;;;;3.87;1.53;;;;;;;5.48;100.00;97283.50;5448781;26;20320;-80
2024/04/16 04:42:48;;;;;;;4.43;1.43;;;;;;;5.55;100.00;97287.41;5449219;26;20315;-80
2024/04/16 04:45:17;;;;;;;6.10;1.50;;;;;;;5.57;100.00;97276.84;5448378;26;20226;-80
2024/04/16 04:47:45;;;;;;;4.17;1.30;;;;;;;5.57;100.00;97267.19;5447712;26;20275;-80
2024/04/16 04:50:14;;;;;;;4.97;1.90;;;;;;;5.52;100.00;97279.75;5447140;26;20736;-80
2024/04/16 04:52:39;;;;;;;3.80;1.23;;;;;;;5.47;100.00;97287.06;5447605;26;20235;-80
2024/04/16 04:55:08;;;;;;;2.33;1.40;;;;;;;5.48;100.00;97293.97;5451500;26;20781;-80
2024/04/16 04:57:33;;;;;;;7.67;1.50;;;;;;;5.59;100.00;97296.78;5453470;26;20231;-80
2024/04/16 05:00:02;;;;;;;4.97;1.90;;;;;;;5.76;100.00;97288.69;5452732;26;20289;-80
2024/04/16 05:02:29;;;;;;;1.70;1.03;;;;;;;5.90;100.00;97296.56;5452842;26;20285;-80
2024/04/16 05:04:59;;;;;;;6.33;1.50;;;;;;;6.02;100.00;97285.28;5452553;26;20269;-80
2024/04/16 05:07:25;;;;;;;6.57;1.70;;;;;;;6.11;98.96;97278.59;5452354;26;20666;-80
2024/04/16 05:09:53;;;;;;;2.87;1.30;;;;;;;6.13;98.02;97277.56;5450670;26;20236;-80
2024/04/16 05:12:19;;;;;;;5.70;1.50;;;;;;;6.20;97.58;97284.09;5451564;26;20326;-80
2024/04/16 05:14:47;;;;;;;4.30;1.57;;;;;;;6.22;98.05;97292.69;5452091;26;20235;-80
2024/04/16 05:17:13;;;;;;;3.30;1.27;;;;;;;6.27;97.69;97287.13;5452080;26;20305;-80
2024/04/16 05:19:41;;;;;;;4.97;1.87;;;;;;;6.30;96.14;97279.06;5452156;26;20262;-80
2024/04/16 05:22:10;;;;;;;5.07;1.63;;;;;;;6.40;96.08;97290.66;5452614;26;20349;-80
2024/04/16 05:24:38;;;;;;;5.67;1.50;;;;;;;6.40;95.74;97291.47;5453527;26;20270;-80
2024/04/16 05:27:04;;;;;;;3.93;1.20;;;;;;;6.40;96.72;97296.72;5450374;26;20302;-80
2024/04/16 05:29:32;;;;;;;3.80;1.40;;;;;;;6.42;98.67;97302.72;5450140;25;20350;-80
2024/04/16 05:31:58;;;;;;;5.30;2.03;;;;;;;6.35;99.74;97304.06;5450285;26;20333;-80
2024/04/16 05:34:26;;;;;;;6.93;1.80;;;;;;;6.33;100.00;97311.19;5450568;26;20651;-80
2024/04/16 05:36:51;;;;;;;2.13;1.27;;;;;;;6.37;100.00;97322.34;5450278;25;20339;-80
2024/04/16 05:39:22;;;;;;;4.67;1.70;;;;;;;6.40;100.00;97317.72;5449462;26;20235;-80
2024/04/16 05:41:48;;;;;;;4.20;1.23;;;;;;;6.46;100.00;97329.59;5450115;26;20231;-81
2024/04/16 05:44:16;;;;;;;3.50;1.63;;;;;;;6.49;100.00;97332.88;5449805;26;20327;-80
2024/04/16 05:46:41;;;;;;;3.20;1.30;;;;;;;6.58;100.00;97336.66;5451161;26;20268;-80
2024/04/16 05:49:10;;;;;;;6.47;2.00;;;;;;;6.65;100.00;97340.59;5455055;26;20281;-81
2024/04/16 05:51:35;;;;;;;3.13;1.80;;;;;;;6.69;100.00;97342.91;5464906;26;20223;-81
2024/04/16 05:54:06;;;;;;;2.43;1.20;;;;;;;6.75;100.00;97334.63;5464317;26;20224;-80
2024/04/16 05:56:34;;;;;;;4.27;1.60;;;;;;;6.74;100.00;97348.69;5459246;26;20262;-81
2024/04/16 05:59:03;;;;;;;5.13;1.40;;;;;;;6.81;100.00;97349.97;5457191;26;20220;-81
2024/04/16 06:01:28;;;;;;;5.20;1.73;;;;;;;6.86;100.00;97350.50;5456279;26;20312;-81
2024/04/16 06:03:56;;;;;;;2.27;1.63;;;;;;;6.90;99.75;97344.09;5455835;26;20232;-80
2024/04/16 06:06:22;;;;;;;4.93;1.20;;;;;;;6.96;99.35;97342.84;5455663;26;20255;-81
2024/04/16 06:08:50;;;;;;;3.03;1.27;;;;;;;7.00;99.51;97345.16;5455192;26;20232;-81
2024/04/16 06:11:16;;;;;;;4.10;1.30;;;;;;;7.09;98.29;97334.03;5456197;26;20886;-81
2024/04/16 06:13:47;;;;;;;3.10;1.20;;;;;;;7.14;98.08;97334.56;5453312;26;20662;-80
2024/04/16 06:16:13;;;;;;;3.13;1.20;;;;;;;7.25;98.61;97332.03;5448666;26;20220;-80
2024/04/16 06:18:42;;;;;;;5.07;1.30;;;;;;;7.26;95.76;97320.59;5452092;26;20264;-81
2024/04/16 06:21:07;;;;;;;5.67;1.90;;;;;;;7.33;94.08;97306.06;5454452;26;20285;-80
2024/04/16 06:23:36;;;;;;;4.77;1.43;;;;;;;7.49;93.66;97301.44;5456178;26;20223;-81
2024/04/16 06:26:05;;;;;;;6.73;1.70;;;;;;;7.62;91.39;97291.72;5455384;26;20312;-81
2024/04/16 06:28:33;;;;;;;4.50;1.30;;;;;;;7.84;88.27;97273.47;5456067;26;20224;-81
2024/04/16 06:31:02;;;;;;;4.73;1.50;;;;;;;7.96;86.66;97257.63;5454711;25;20289;-81
2024/04/16 06:33:33;;;;;;;3.83;1.30;;;;;;;7.97;82.36;97245.34;5431254;26;20299;-81
2024/04/16 06:35:58;;;;;;;4.23;1.57;;;;;;;8.01;80.97;97257.28;5419208;26;20454;-81
2024/04/16 06:38:27;;;;;;;3.80;1.50;;;;;;;7.90;80.50;97244.09;5418635;26;20229;-82
2024/04/16 06:40:55;;;;;;;2.80;1.10;;;;;;;7.98;79.39;97254.91;5417860;26;20724;-81
2024/04/16 06:43:21;;;;;;;4.53;1.27;;;;;;;8.11;80.95;97258.31;5417815;26;20305;-81
2024/04/16 06:45:49;;;;;;;4.63;1.40;;;;;;;8.13;81.19;97272.19;5417563;26;20237;-80
2024/04/16 06:48:17;;;;;;;3.33;1.17;;;;;;;8.15;78.08;97238.72;5413269;26;20791;-80
2024/04/16 06:50:47;;;;;;;3.00;1.00;;;;;;;8.14;77.88;97237.88;5412660;26;20245;-81
2024/04/16 06:53:13;;;;;;;5.03;1.40;;;;;;;8.15;77.97;97233.47;5417594;26;20519;-80
2024/04/16 06:55:42;;;;;;;7.17;1.30;;;;;;;8.22;76.26;97226.81;5446763;26;20309;-79
2024/04/16 06:58:08;;;;;;;5.67;1.53;;;;;;;8.35;75.45;97235.50;5448334;26;20224;-78
2024/04/16 07:00:36;;;;;;;2.20;1.00;;;;;;;8.40;75.02;97225.47;5448454;26;20282;-80
2024/04/16 07:03:02;;;;;;;1.57;0.83;;;;;;;8.54;75.35;97233.16;5447725;26;20292;-80
2024/04/16 07:05:33;;;;;;;6.10;0.90;;;;;;;8.63;74.37;97228.03;5448300;26;20305;-79
2024/04/16 07:07:58;;;;;;;4.63;0.90;;;;;;;8.71;72.73;97201.97;5447656;26;20232;-80
2024/04/16 07:10:26;;;;;;;2.97;1.20;;;;;;;8.80;72.09;97205.66;5449545;26;20356;-80
2024/04/16 07:12:52;;;;;;;2.57;0.90;;;;;;;8.91;72.29;97218.84;5448409;26;20240;-78
2024/04/16 07:15:20;;;;;;;5.67;1.00;;;;;;;9.14;72.96;97220.56;5447693;26;20332;-80
2024/04/16 07:17:49;;;;;;;2.27;0.97;;;;;;;9.21;71.69;97216.47;5440479;26;20240;-78
2024/04/16 07:20:14;;;;;;;4.00;0.90;;;;;;;9.18;68.98;97193.84;5447515;26;20288;-78
2024/04/16 07:22:45;;;;;;;3.83;1.07;;;;;;;9.31;68.09;97175.25;5445087;26;20224;-77
2024/04/16 07:25:11;;;;;;;2.60;0.97;;;;;;;9.32;64.52;97180.44;5443108;26;20280;-78
2024/04/16 07:27:39;;;;;;;5.43;1.40;;;;;;;9.43;64.91;97184.84;5449437;26;20255;-78
2024/04/16 07:30:06;;;;;;;2.70;1.17;;;;;;;9.50;65.10;97178.13;5445405;25;20384;-78
2024/04/16 07:32:34;;;;;;;2.10;0.80;;;;;;;9.37;61.70;97145.78;5445986;26;20267;-78
2024/04/16 07:34:59;;;;;;;2.27;0.90;;;;;;;9.31;60.87;97154.19;5445749;26;20681;-78
2024/04/16 07:37:28;;;;;;;1.57;0.90;;;;;;;9.30;59.34;97141.97;5445733;26;20232;-78
2024/04/16 07:39:56;;;;;;;1.93;0.90;;;;;;;9.19;60.04;97171.78;5444520;26;20308;-78
2024/04/16 07:42:24;;;;;;;1.43;0.80;;;;;;;9.16;58.73;97148.31;5453832;26;20228;-78
2024/04/16 07:44:49;;;;;;;2.77;1.30;;;;;;;9.07;58.82;97150.84;5455311;26;20235;-78
2024/04/16 07:47:18;;;;;;;1.20;0.90;;;;;;;9.12;59.00;97153.97;5454926;26;20325;-79
2024/04/16 07:49:43;;;;;;;3.40;0.90;;;;;;;9.21;59.73;97145.31;5455557;26;20275;-78
2024/04/16 07:52:13;;;;;;;1.20;0.60;;;;;;;9.47;58.99;97149.34;5459995;26;20225;-78
2024/04/16 07:54:39;;;;;;;3.33;1.23;;;;;;;9.65;59.38;97153.13;5460730;26;20225;-78
2024/04/16 07:57:10;;;;;;;1.43;0.70;;;;;;;9.68;57.71;97127.34;5458692;26;20297;-79
2024/04/16 07:59:35;;;;;;;2.57;0.90;;;;;;;9.76;57.88;97145.19;5455938;26;20317;-79
2024/04/16 08:02:04;;;;;;;1.60;0.80;;;;;;;9.68;56.08;97144.97;5453469;26;20239;-81
2024/04/16 08:04:30;;;;;;;1.27;0.80;;;;;;;9.88;57.95;97160.03;5453715;26;20247;-80
2024/04/16 08:06:58;;;;;;;2.30;0.70;;;;;;;10.04;55.49;97134.91;5451163;26;20236;-80
2024/04/16 08:09:23;;;;;;;2.63;0.80;;;;;;;10.14;56.89;97146.41;5452807;26;20227;-79
2024/04/16 08:11:51;;;;;;;1.77;0.70;;;;;;;10.31;56.94;97142.34;5450019;26;20280;-79
2024/04/16 08:14:21;;;;;;;3.13;0.80;;;;;;;10.33;56.95;97132.50;5447592;26;20313;-79
2024/04/16 08:16:50;;;;;;;4.20;0.90;;;;;;;10.36;56.13;97124.31;5448709;26;20225;-81
2024/04/16 08:19:15;;;;;;;2.97;0.57;;;;;;;10.36;57.11;97161.28;5443631;26;20876;-81
2024/04/16 08:21:43;;;;;;;3.27;0.90;;;;;;;10.38;57.25;97162.00;5447498;26;20244;-81
2024/04/16 08:24:09;;;;;;;3.57;0.97;;;;;;;10.30;56.71;97148.59;5448375;26;20292;-81
2024/04/16 08:26:37;;;;;;;3.00;0.60;;;;;;;10.23;57.31;97160.63;5447573;26;20332;-81
2024/04/16 08:29:02;;;;;;;2.40;0.70;;;;;;;10.23;57.10;97153.56;5451667;26;20240;-81
2024/04/16 08:31:34;;;;;;;2.00;0.70;;;;;;;9.95;57.05;97137.44;5456009;26;20327;-80
2024/04/16 08:34:01;;;;;;;3.43;1.00;;;;;;;9.69;57.48;97149.28;5456439;26;20288;-80
2024/04/16 08:36:30;;;;;;;1.17;0.60;;;;;;;9.58;57.85;97168.63;5457066;26;20322;-80
2024/04/16 08:38:55;;;;;;;2.27;0.83;;;;;;;9.55;57.13;97146.94;5456346;26;20331;-80
2024/04/16 08:41:23;;;;;;;2.03;0.90;;;;;;;9.45;57.83;97156.53;5455786;26;20244;-80
2024/04/16 08:43:50;;;;;;;2.27;0.80;;;;;;;9.66;59.20;97171.47;5431376;26;20338;-80
2024/04/16 08:46:19;;;;;;;5.00;1.00;;;;;;;9.89;58.98;97172.25;5420131;26;20233;-80
2024/04/16 08:48:48;;;;;;;1.80;0.73;;;;;;;10.16;57.04;97148.91;5420414;26;20303;-80
2024/04/16 08:51:19;;;;;;;2.43;0.80;;;;;;;10.37;56.64;97139.19;5419187;26;20361;-78
2024/04/16 08:53:48;;;;;;;3.63;1.10;;;;;;;10.23;56.75;97136.88;5418971;26;20289;-81
2024/04/16 08:56:17;;;;;;;2.13;1.17;;;;;;;10.27;57.18;97140.94;5419694;26;20606;-81
2024/04/16 08:58:44;;;;;;;2.40;0.70;;;;;;;10.39;57.65;97145.19;5419735;26;20320;-79
2024/04/16 09:01:13;;;;;;;3.17;0.90;;;;;;;10.30;56.62;97130.09;5429215;26;20356;-80
2024/04/16 09:03:38;;;;;;;4.07;0.80;;;;;;;10.32;57.10;97133.44;5445560;26;20276;-78
2024/04/16 09:06:10;;;;;;;2.83;0.90;;;;;;;10.58;58.29;97150.59;5448652;26;20332;-80
2024/04/16 09:08:37;;;;;;;2.53;0.80;;;;;;;10.59;56.71;97134.59;5416821;26;20682;-80
2024/04/16 09:11:06;;;;;;;3.00;1.00;;;;;;;10.69;55.91;97121.44;5417836;26;20237;-79
2024/04/16 09:13:38;;;;;;;2.50;0.90;;;;;;;10.82;56.95;97132.66;5417111;26;20273;-79
2024/04/16 09:16:06;;;;;;;2.77;0.83;;;;;;;10.72;56.04;97115.91;5418658;26;20222;-81
2024/04/16 09:18:32;;;;;;;3.80;1.10;;;;;;;10.62;55.97;97122.94;5433075;26;20280;-78
2024/04/16 09:21:00;;;;;;;1.73;0.70;;;;;;;10.54;56.02;97122.75;5449823;26;20325;-81
2024/04/16 09:23:29;;;;;;;3.83;0.70;;;;;;;10.77;56.87;97146.25;5454924;26;20276;-80
2024/04/16 09:25:58;;;;;;;2.57;0.90;;;;;;;10.94;56.73;97147.47;5454838;26;20229;-78
2024/04/16 09:28:23;;;;;;;4.93;1.13;;;;;;;11.27;57.10;97149.81;5454005;26;20271;-84
2024/04/16 09:30:58;;;;;;;2.90;1.00;;;;;;;11.47;55.38;97128.59;5451564;26;20232;-79
2024/04/16 09:33:23;;;;;;;2.80;0.80;;;;;;;11.39;55.33;97131.09;5449207;26;20219;-78
2024/04/16 09:35:52;;;;;;;2.83;0.77;;;;;;;11.60;55.42;97137.13;5453010;26;20580;-79
2024/04/16 09:38:18;;;;;;;3.90;0.80;;;;;;;11.46;54.57;97123.41;5452563;26;20265;-79
2024/04/16 09:40:50;;;;;;;2.10;1.00;;;;;;;11.50;54.96;97124.84;5446874;26;20714;-79
2024/04/16 09:43:17;;;;;;;4.93;0.90;;;;;;;11.53;53.58;97095.44;5446684;26;20287;-78
2024/04/16 09:45:50;;;;;;;3.70;0.87;;;;;;;11.67;54.62;97113.63;5446685;26;20664;-78
2024/04/16 09:48:17;;;;;;;2.80;0.90;;;;;;;11.53;54.04;97104.22;5446294;26;20347;-79
2024/04/16 09:50:47;;;;;;;6.47;0.70;;;;;;;11.47;54.29;97098.63;5444677;26;20247;-79
2024/04/16 09:53:14;;;;;;;1.33;0.70;;;;;;;11.14;53.93;97106.91;5453322;26;20627;-78
2024/04/16 09:55:44;;;;;;;1.30;0.60;;;;;;;11.04;55.03;97106.88;5450644;26;20248;-78
2024/04/16 09:58:16;;;;;;;1.37;0.50;;;;;;;10.88;56.07;97132.13;5449510;26;20235;-78
2024/04/16 10:00:44;;;;;;;2.70;0.90;;;;;;;10.74;55.72;97121.88;5445503;26;20306;-78
2024/04/16 10:03:11;;;;;;;2.13;0.87;;;;;;;10.71;56.60;97109.78;5445077;26;20221;-79
2024/04/16 10:05:39;;;;;;;3.20;0.80;;;;;;;10.61;56.72;97110.69;5445275;26;20755;-78
2024/04/16 10:08:06;;;;;;;1.20;0.47;;;;;;;10.53;56.05;97115.81;5443760;26;20243;-78
2024/04/16 10:10:34;;;;;;;1.00;0.50;;;;;;;10.47;56.46;97117.16;5446642;26;20300;-78
2024/04/16 10:13:01;;;;;;;1.00;0.50;;;;;;;10.53;57.79;97139.59;5448503;26;20341;-81
2024/04/16 10:15:35;;;;;;;1.60;0.70;;;;;;;10.62;57.81;97146.72;5448709;26;20227;-80
2024/04/16 10:18:04;;;;;;;1.13;0.57;;;;;;;10.55;57.23;97146.41;5451714;26;20327;-79
2024/04/16 10:20:30;;;;;;;4.20;0.63;;;;;;;10.38;57.15;97154.91;5451246;26;20241;-80
2024/04/16 10:22:59;;;;;;;1.50;0.70;;;;;;;10.23;58.10;97152.72;5451109;26;20320;-79
2024/04/16 10:25:30;;;;;;;0.43;0.40;;;;;;;10.26;58.92;97163.84;5450860;26;20220;-80
2024/04/16 10:28:00;;;;;;;1.03;0.80;;;;;;;10.24;58.61;97141.19;5447843;26;20232;-79
2024/04/16 10:30:28;;;;;;;4.43;1.10;;;;;;;10.02;58.65;97147.38;5447241;26;20442;-79
2024/04/16 10:33:01;;;;;;;1.17;0.40;;;;;;;10.03;59.65;97149.06;5449358;26;20231;-78
2024/04/16 10:35:28;;;;;;;1.07;0.50;;;;;;;10.09;59.88;97169.69;5449180;26;20607;-78
2024/04/16 10:37:56;;;;;;;2.50;0.80;;;;;;;10.07;61.27;97170.78;5448171;26;20224;-79
2024/04/16 10:40:23;;;;;;;3.70;0.63;;;;;;;10.04;62.90;97145.47;5446350;26;20773;-80
2024/04/16 10:42:51;;;;;;;1.50;0.50;;;;;;;10.02;62.45;97183.47;5448569;26;20224;-79
2024/04/16 10:45:17;;;;;;;0.77;0.50;;;;;;;10.08;62.21;97172.44;5447958;26;20264;-78
2024/04/16 10:47:46;;;;;;;2.23;0.80;;;;;;;10.07;63.26;97182.19;5449568;26;20332;-78
2024/04/16 10:50:14;;;;;;;1.23;0.50;;;;;;;10.16;61.82;97162.94;5448935;26;20340;-78
2024/04/16 10:52:42;;;;;;;2.70;0.70;;;;;;;10.31;63.54;97179.31;5449337;26;20650;-79
2024/04/16 10:55:08;;;;;;;2.33;0.80;;;;;;;10.52;63.33;97166.97;5450301;26;20296;-78
2024/04/16 10:57:36;;;;;;;2.93;0.80;;;;;;;10.77;62.50;97150.72;5449720;26;21080;-78
2024/04/16 11:00:02;;;;;;;2.23;0.50;;;;;;;10.87;61.11;97141.00;5449364;26;20263;-78
2024/04/16 11:02:30;;;;;;;1.47;0.70;;;;;;;10.92;60.43;97121.16;5449668;26;20224;-78
2024/04/16 11:04:56;;;;;;;1.93;0.60;;;;;;;11.13;60.83;97142.25;5449274;26;20258;-78
2024/04/16 11:07:27;;;;;;;0.70;0.60;;;;;;;11.15;59.35;97135.03;5449298;26;20573;-78
2024/04/16 11:09:52;;;;;;;1.37;0.60;;;;;;;11.24;60.40;97144.78;5449947;26;20240;-78
2024/04/16 11:12:20;;;;;;;1.30;0.47;;;;;;;11.31;59.60;97135.38;5450595;26;20763;-78
2024/04/16 11:14:47;;;;;;;1.20;0.67;;;;;;;11.29;60.33;97143.44;5449113;26;20273;-78
2024/04/16 11:17:15;;;;;;;1.33;0.50;;;;;;;11.33;60.29;97155.44;5449768;26;20340;-79
2024/04/16 11:19:41;;;;;;;2.00;0.80;;;;;;;11.45;60.70;97150.84;5449318;26;20338;-78
2024/04/16 11:22:09;;;;;;;0.77;0.40;;;;;;;11.52;59.99;97141.41;5449270;26;20228;-78
2024/04/16 11:24:38;;;;;;;1.53;0.50;;;;;;;11.66;59.34;97141.88;5448932;26;20236;-78
2024/04/16 11:27:13;;;;;;;1.77;0.60;;;;;;;11.74;58.21;97126.16;5448160;26;20224;-78
2024/04/16 11:29:45;;;;;;;1.90;0.40;;;;;;;11.72;59.34;97130.75;5448615;26;20243;-78
2024/04/16 11:32:13;;;;;;;2.20;0.60;;;;;;;11.61;58.20;97122.09;5448474;26;20651;-78
2024/04/16 11:34:42;;;;;;;1.17;0.50;;;;;;;11.55;59.83;97133.22;5448680;26;20226;-78
2024/04/16 11:37:10;;;;;;;0.73;0.40;;;;;;;11.41;59.68;97137.06;5448688;26;20236;-78
2024/04/16 11:39:39;;;;;;;1.43;0.60;;;;;;;11.33;58.94;97133.41;5448558;26;20340;-78